Main page
METAR-TAF:

METAR-TAF

Airports :

Dundee, Scotland

Dundee Airport

latitude: 56-27N, longitude: 003-01W, elevation: 4 m

Current weather observation

The report was made 6 hours and 23 minutes ago, at 19:50 UTC
Wind 9 kt from the Northeast, varying between North and East
Temperature 12°C
Humidity 71%
Pressure 1004 hPa
Visibility 10 km or more
Few clouds at a height of 3500 ft

METAR: EGPN 281950Z 05009KT 010V090 9999 FEW035 12/07 Q1004

Time: 03:13 (02:13 UTC)

Forecast

The report was made 9 hours and 13 minutes ago, at 17:00 UTC
Forecast valid from 28 at 18 UTC to 28 at 20 UTC
Wind 11 kt from the East
Visibility 10 km or more
Scattered clouds at a height of 3000 ft
Becoming
from 28 at 18 UTC to 28 at 20 UTC
Wind 12 kt from the North/Northeast

TAF: EGPN 281700Z 2818/2820 09011KT 9999 SCT030 BECMG 2818/2820 03012KT

Weather observations and forecasts of more than 4000 airports (METAR and TAF reports).

The available stations are represented by yellow and red dots on the map.

Hover mouse over dot to see the name of the station.

Then click to see weather observations and forecasts.

To change the map : click on the green buttons with a black cross to zoom in, on the green button with a dash to zoom out, or on the green arrows for adjacent maps.


METAR-TAF: